sensor_id;sensor_type;location;lat;lon;timestamp;P1;durP1;ratioP1;P2;durP2;ratioP2
80567;SDS011;69922;45.656;25.586;2023-12-20T00:00:48;58.70;;;29.30;;
80567;SDS011;69922;45.656;25.586;2023-12-20T00:02:14;52.10;;;29.60;;
80567;SDS011;69922;45.656;25.586;2023-12-20T00:03:20;55.40;;;29.50;;
80567;SDS011;69922;45.656;25.586;2023-12-20T00:04:28;51.60;;;28.80;;
80567;SDS011;69922;45.656;25.586;2023-12-20T00:05:35;56.00;;;30.90;;
80567;SDS011;69922;45.656;25.586;2023-12-20T00:06:45;53.30;;;29.60;;
80567;SDS011;69922;45.656;25.586;2023-12-20T00:07:51;57.50;;;29.20;;
80567;SDS011;69922;45.656;25.586;2023-12-20T00:08:58;49.70;;;27.40;;
80567;SDS011;69922;45.656;25.586;2023-12-20T00:10:05;53.60;;;28.10;;
80567;SDS011;69922;45.656;25.586;2023-12-20T00:11:12;49.70;;;28.00;;
80567;SDS011;69922;45.656;25.586;2023-12-20T00:12:18;53.40;;;29.90;;
80567;SDS011;69922;45.656;25.586;2023-12-20T00:13:25;50.90;;;27.80;;
80567;SDS011;69922;45.656;25.586;2023-12-20T00:14:31;48.10;;;27.10;;
80567;SDS011;69922;45.656;25.586;2023-12-20T00:15:38;55.80;;;28.60;;
80567;SDS011;69922;45.656;25.586;2023-12-20T00:16:44;49.40;;;28.60;;
80567;SDS011;69922;45.656;25.586;2023-12-20T00:17:51;53.30;;;26.90;;
80567;SDS011;69922;45.656;25.586;2023-12-20T00:18:58;49.80;;;29.20;;
80567;SDS011;69922;45.656;25.586;2023-12-20T00:20:05;51.60;;;28.20;;
80567;SDS011;69922;45.656;25.586;2023-12-20T00:21:12;53.00;;;30.30;;
80567;SDS011;69922;45.656;25.586;2023-12-20T00:22:19;52.80;;;28.60;;
80567;SDS011;69922;45.656;25.586;2023-12-20T00:23:25;61.20;;;33.30;;
80567;SDS011;69922;45.656;25.586;2023-12-20T00:24:32;57.40;;;34.30;;
80567;SDS011;69922;45.656;25.586;2023-12-20T00:25:38;60.40;;;33.20;;
80567;SDS011;69922;45.656;25.586;2023-12-20T00:26:45;62.00;;;32.70;;
80567;SDS011;69922;45.656;25.586;2023-12-20T00:27:51;59.60;;;33.00;;
80567;SDS011;69922;45.656;25.586;2023-12-20T00:28:57;59.00;;;33.60;;
80567;SDS011;69922;45.656;25.586;2023-12-20T00:30:04;60.70;;;33.20;;
80567;SDS011;69922;45.656;25.586;2023-12-20T00:31:12;56.00;;;33.20;;
80567;SDS011;69922;45.656;25.586;2023-12-20T00:32:18;60.30;;;32.00;;
80567;SDS011;69922;45.656;25.586;2023-12-20T00:33:25;54.70;;;31.10;;
80567;SDS011;69922;45.656;25.586;2023-12-20T00:34:31;54.10;;;30.10;;
80567;SDS011;69922;45.656;25.586;2023-12-20T00:35:38;60.10;;;30.90;;
80567;SDS011;69922;45.656;25.586;2023-12-20T00:36:44;54.60;;;30.10;;
80567;SDS011;69922;45.656;25.586;2023-12-20T00:37:51;55.00;;;30.80;;
80567;SDS011;69922;45.656;25.586;2023-12-20T00:38:57;52.60;;;29.90;;
80567;SDS011;69922;45.656;25.586;2023-12-20T00:40:05;55.60;;;30.20;;
80567;SDS011;69922;45.656;25.586;2023-12-20T00:41:12;55.60;;;29.60;;
80567;SDS011;69922;45.656;25.586;2023-12-20T00:42:19;51.90;;;29.00;;
80567;SDS011;69922;45.656;25.586;2023-12-20T00:43:25;55.40;;;30.80;;
80567;SDS011;69922;45.656;25.586;2023-12-20T00:44:32;66.40;;;31.80;;
80567;SDS011;69922;45.656;25.586;2023-12-20T00:45:38;54.50;;;30.50;;
80567;SDS011;69922;45.656;25.586;2023-12-20T00:46:44;56.40;;;29.90;;
80567;SDS011;69922;45.656;25.586;2023-12-20T00:47:51;53.90;;;29.60;;
80567;SDS011;69922;45.656;25.586;2023-12-20T00:48:57;55.20;;;30.40;;
80567;SDS011;69922;45.656;25.586;2023-12-20T00:50:04;55.60;;;29.80;;
80567;SDS011;69922;45.656;25.586;2023-12-20T00:51:11;56.00;;;30.50;;
80567;SDS011;69922;45.656;25.586;2023-12-20T00:52:18;54.00;;;29.20;;
80567;SDS011;69922;45.656;25.586;2023-12-20T00:53:26;54.10;;;32.50;;
80567;SDS011;69922;45.656;25.586;2023-12-20T00:54:32;49.80;;;28.50;;
80567;SDS011;69922;45.656;25.586;2023-12-20T00:55:39;61.80;;;33.60;;
80567;SDS011;69922;45.656;25.586;2023-12-20T00:56:45;84.60;;;40.20;;
80567;SDS011;69922;45.656;25.586;2023-12-20T00:57:52;131.40;;;54.70;;
80567;SDS011;69922;45.656;25.586;2023-12-20T00:58:58;111.40;;;46.10;;
80567;SDS011;69922;45.656;25.586;2023-12-20T01:00:05;83.10;;;37.30;;
80567;SDS011;69922;45.656;25.586;2023-12-20T01:01:14;61.60;;;32.90;;
80567;SDS011;69922;45.656;25.586;2023-12-20T01:02:20;64.10;;;33.10;;
80567;SDS011;69922;45.656;25.586;2023-12-20T01:03:26;65.10;;;32.50;;
80567;SDS011;69922;45.656;25.586;2023-12-20T01:04:32;60.10;;;32.60;;
80567;SDS011;69922;45.656;25.586;2023-12-20T01:05:39;65.50;;;33.10;;
80567;SDS011;69922;45.656;25.586;2023-12-20T01:06:45;62.90;;;34.00;;
80567;SDS011;69922;45.656;25.586;2023-12-20T01:07:52;55.70;;;31.30;;
80567;SDS011;69922;45.656;25.586;2023-12-20T01:08:58;61.30;;;32.80;;
80567;SDS011;69922;45.656;25.586;2023-12-20T01:10:05;63.80;;;34.20;;
80567;SDS011;69922;45.656;25.586;2023-12-20T01:11:13;61.30;;;33.40;;
80567;SDS011;69922;45.656;25.586;2023-12-20T01:12:19;63.50;;;34.30;;
80567;SDS011;69922;45.656;25.586;2023-12-20T01:13:26;69.40;;;36.20;;
80567;SDS011;69922;45.656;25.586;2023-12-20T01:14:32;65.70;;;32.30;;
80567;SDS011;69922;45.656;25.586;2023-12-20T01:15:39;66.50;;;35.30;;
80567;SDS011;69922;45.656;25.586;2023-12-20T01:16:46;62.70;;;33.70;;
80567;SDS011;69922;45.656;25.586;2023-12-20T01:17:52;62.30;;;32.10;;
80567;SDS011;69922;45.656;25.586;2023-12-20T01:19:01;59.90;;;31.00;;
80567;SDS011;69922;45.656;25.586;2023-12-20T01:20:08;52.60;;;29.30;;
80567;SDS011;69922;45.656;25.586;2023-12-20T01:21:15;57.70;;;29.30;;
80567;SDS011;69922;45.656;25.586;2023-12-20T01:22:22;49.70;;;27.40;;
80567;SDS011;69922;45.656;25.586;2023-12-20T01:23:28;53.20;;;27.90;;
80567;SDS011;69922;45.656;25.586;2023-12-20T01:24:34;50.10;;;27.80;;
80567;SDS011;69922;45.656;25.586;2023-12-20T01:25:41;51.60;;;28.30;;
80567;SDS011;69922;45.656;25.586;2023-12-20T01:26:47;47.80;;;27.60;;
80567;SDS011;69922;45.656;25.586;2023-12-20T01:27:53;45.60;;;26.00;;
80567;SDS011;69922;45.656;25.586;2023-12-20T01:29:00;49.30;;;26.30;;
80567;SDS011;69922;45.656;25.586;2023-12-20T01:30:07;50.70;;;26.80;;
80567;SDS011;69922;45.656;25.586;2023-12-20T01:31:14;50.50;;;26.30;;
80567;SDS011;69922;45.656;25.586;2023-12-20T01:32:21;43.60;;;27.10;;
80567;SDS011;69922;45.656;25.586;2023-12-20T01:33:28;51.00;;;27.90;;
80567;SDS011;69922;45.656;25.586;2023-12-20T01:34:34;48.00;;;28.00;;
80567;SDS011;69922;45.656;25.586;2023-12-20T01:35:41;48.50;;;27.30;;
80567;SDS011;69922;45.656;25.586;2023-12-20T01:36:47;50.60;;;27.70;;
80567;SDS011;69922;45.656;25.586;2023-12-20T01:37:53;45.60;;;25.50;;
80567;SDS011;69922;45.656;25.586;2023-12-20T01:39:02;46.30;;;26.30;;
80567;SDS011;69922;45.656;25.586;2023-12-20T01:40:19;42.40;;;24.50;;
80567;SDS011;69922;45.656;25.586;2023-12-20T01:41:26;39.50;;;23.00;;
80567;SDS011;69922;45.656;25.586;2023-12-20T01:42:32;39.70;;;23.50;;
80567;SDS011;69922;45.656;25.586;2023-12-20T01:43:38;37.20;;;22.20;;
80567;SDS011;69922;45.656;25.586;2023-12-20T01:44:54;36.50;;;22.60;;
80567;SDS011;69922;45.656;25.586;2023-12-20T01:46:01;41.10;;;24.10;;
80567;SDS011;69922;45.656;25.586;2023-12-20T01:47:08;42.20;;;23.60;;
80567;SDS011;69922;45.656;25.586;2023-12-20T01:48:15;39.00;;;23.90;;
80567;SDS011;69922;45.656;25.586;2023-12-20T01:49:22;45.10;;;23.50;;
80567;SDS011;69922;45.656;25.586;2023-12-20T01:50:28;40.00;;;23.70;;
80567;SDS011;69922;45.656;25.586;2023-12-20T01:51:36;41.60;;;24.60;;
80567;SDS011;69922;45.656;25.586;2023-12-20T01:52:43;42.90;;;25.90;;
80567;SDS011;69922;45.656;25.586;2023-12-20T01:53:50;44.60;;;23.50;;
80567;SDS011;69922;45.656;25.586;2023-12-20T01:54:56;42.90;;;23.60;;
80567;SDS011;69922;45.656;25.586;2023-12-20T01:56:07;42.10;;;24.10;;
80567;SDS011;69922;45.656;25.586;2023-12-20T01:57:15;42.10;;;23.50;;
80567;SDS011;69922;45.656;25.586;2023-12-20T01:58:21;39.40;;;23.20;;
80567;SDS011;69922;45.656;25.586;2023-12-20T01:59:28;37.30;;;22.00;;
80567;SDS011;69922;45.656;25.586;2023-12-20T02:00:35;38.40;;;22.70;;
80567;SDS011;69922;45.656;25.586;2023-12-20T02:01:42;37.70;;;21.40;;
80567;SDS011;69922;45.656;25.586;2023-12-20T02:02:49;40.50;;;23.60;;
80567;SDS011;69922;45.656;25.586;2023-12-20T02:03:57;36.60;;;20.90;;
80567;SDS011;69922;45.656;25.586;2023-12-20T02:05:05;37.10;;;21.40;;
80567;SDS011;69922;45.656;25.586;2023-12-20T02:06:12;37.90;;;22.30;;
80567;SDS011;69922;45.656;25.586;2023-12-20T02:07:19;33.40;;;21.50;;
80567;SDS011;69922;45.656;25.586;2023-12-20T02:08:27;38.20;;;22.10;;
80567;SDS011;69922;45.656;25.586;2023-12-20T02:09:33;39.40;;;23.60;;
80567;SDS011;69922;45.656;25.586;2023-12-20T02:10:39;38.40;;;23.60;;
80567;SDS011;69922;45.656;25.586;2023-12-20T02:11:46;42.10;;;24.80;;
80567;SDS011;69922;45.656;25.586;2023-12-20T02:12:54;44.80;;;25.90;;
80567;SDS011;69922;45.656;25.586;2023-12-20T02:14:00;41.60;;;24.10;;
80567;SDS011;69922;45.656;25.586;2023-12-20T02:15:08;44.20;;;24.70;;
80567;SDS011;69922;45.656;25.586;2023-12-20T02:16:14;43.00;;;26.30;;
80567;SDS011;69922;45.656;25.586;2023-12-20T02:17:21;44.60;;;26.30;;
80567;SDS011;69922;45.656;25.586;2023-12-20T02:18:29;41.50;;;26.50;;
80567;SDS011;69922;45.656;25.586;2023-12-20T02:19:35;45.70;;;29.10;;
80567;SDS011;69922;45.656;25.586;2023-12-20T02:20:41;41.30;;;24.20;;
80567;SDS011;69922;45.656;25.586;2023-12-20T02:21:48;43.70;;;26.50;;
80567;SDS011;69922;45.656;25.586;2023-12-20T02:22:54;41.30;;;24.60;;
80567;SDS011;69922;45.656;25.586;2023-12-20T02:24:01;45.50;;;25.30;;
80567;SDS011;69922;45.656;25.586;2023-12-20T02:25:08;41.20;;;23.40;;
80567;SDS011;69922;45.656;25.586;2023-12-20T02:26:14;38.50;;;22.30;;
80567;SDS011;69922;45.656;25.586;2023-12-20T02:27:21;38.90;;;23.10;;
80567;SDS011;69922;45.656;25.586;2023-12-20T02:28:28;42.40;;;22.70;;
80567;SDS011;69922;45.656;25.586;2023-12-20T02:29:36;34.40;;;21.90;;
80567;SDS011;69922;45.656;25.586;2023-12-20T02:30:42;40.60;;;23.40;;
80567;SDS011;69922;45.656;25.586;2023-12-20T02:31:48;45.00;;;23.60;;
80567;SDS011;69922;45.656;25.586;2023-12-20T02:32:55;41.30;;;24.60;;
80567;SDS011;69922;45.656;25.586;2023-12-20T02:34:04;43.10;;;25.00;;
80567;SDS011;69922;45.656;25.586;2023-12-20T02:35:10;42.10;;;24.80;;
80567;SDS011;69922;45.656;25.586;2023-12-20T02:36:17;40.30;;;23.60;;
80567;SDS011;69922;45.656;25.586;2023-12-20T02:37:23;40.80;;;23.90;;
80567;SDS011;69922;45.656;25.586;2023-12-20T02:38:29;41.00;;;24.10;;
80567;SDS011;69922;45.656;25.586;2023-12-20T02:39:36;44.00;;;24.60;;
80567;SDS011;69922;45.656;25.586;2023-12-20T02:40:42;41.60;;;23.80;;
80567;SDS011;69922;45.656;25.586;2023-12-20T02:41:53;40.60;;;25.80;;
80567;SDS011;69922;45.656;25.586;2023-12-20T02:42:59;39.90;;;23.00;;
80567;SDS011;69922;45.656;25.586;2023-12-20T02:44:06;40.60;;;23.60;;
80567;SDS011;69922;45.656;25.586;2023-12-20T02:45:12;31.30;;;20.70;;
80567;SDS011;69922;45.656;25.586;2023-12-20T02:46:18;37.40;;;23.10;;
80567;SDS011;69922;45.656;25.586;2023-12-20T02:47:25;43.20;;;23.70;;
80567;SDS011;69922;45.656;25.586;2023-12-20T02:48:33;37.70;;;22.50;;
80567;SDS011;69922;45.656;25.586;2023-12-20T02:49:40;41.10;;;23.90;;
80567;SDS011;69922;45.656;25.586;2023-12-20T02:50:46;43.30;;;24.50;;
80567;SDS011;69922;45.656;25.586;2023-12-20T02:51:53;41.00;;;25.80;;
80567;SDS011;69922;45.656;25.586;2023-12-20T02:52:59;41.90;;;24.40;;
80567;SDS011;69922;45.656;25.586;2023-12-20T02:54:06;38.80;;;23.70;;
80567;SDS011;69922;45.656;25.586;2023-12-20T02:55:12;43.90;;;23.50;;
80567;SDS011;69922;45.656;25.586;2023-12-20T02:56:19;43.90;;;25.40;;
80567;SDS011;69922;45.656;25.586;2023-12-20T02:57:26;47.90;;;26.20;;
80567;SDS011;69922;45.656;25.586;2023-12-20T02:58:32;41.00;;;23.80;;
80567;SDS011;69922;45.656;25.586;2023-12-20T02:59:38;42.40;;;23.70;;
80567;SDS011;69922;45.656;25.586;2023-12-20T03:00:44;33.90;;;21.70;;
80567;SDS011;69922;45.656;25.586;2023-12-20T03:01:51;39.10;;;24.10;;
80567;SDS011;69922;45.656;25.586;2023-12-20T03:02:57;38.10;;;23.70;;
80567;SDS011;69922;45.656;25.586;2023-12-20T03:04:04;37.40;;;22.70;;
80567;SDS011;69922;45.656;25.586;2023-12-20T03:05:11;35.50;;;21.30;;
80567;SDS011;69922;45.656;25.586;2023-12-20T03:06:18;34.20;;;20.90;;
80567;SDS011;69922;45.656;25.586;2023-12-20T03:07:25;36.80;;;24.10;;
80567;SDS011;69922;45.656;25.586;2023-12-20T03:08:31;37.40;;;21.50;;
80567;SDS011;69922;45.656;25.586;2023-12-20T03:09:37;36.90;;;22.40;;
80567;SDS011;69922;45.656;25.586;2023-12-20T03:11:04;46.00;;;25.10;;
80567;SDS011;69922;45.656;25.586;2023-12-20T03:12:10;42.90;;;24.40;;
80567;SDS011;69922;45.656;25.586;2023-12-20T03:13:16;46.80;;;25.30;;
80567;SDS011;69922;45.656;25.586;2023-12-20T03:14:22;41.40;;;24.10;;
80567;SDS011;69922;45.656;25.586;2023-12-20T03:15:29;48.90;;;27.50;;
80567;SDS011;69922;45.656;25.586;2023-12-20T03:16:35;44.00;;;26.10;;
80567;SDS011;69922;45.656;25.586;2023-12-20T03:17:41;44.10;;;24.90;;
80567;SDS011;69922;45.656;25.586;2023-12-20T03:18:49;47.60;;;25.80;;
80567;SDS011;69922;45.656;25.586;2023-12-20T03:19:55;43.80;;;25.50;;
80567;SDS011;69922;45.656;25.586;2023-12-20T03:21:01;40.30;;;23.70;;
80567;SDS011;69922;45.656;25.586;2023-12-20T03:22:09;39.80;;;23.90;;
80567;SDS011;69922;45.656;25.586;2023-12-20T03:23:15;38.90;;;23.10;;
80567;SDS011;69922;45.656;25.586;2023-12-20T03:24:22;39.00;;;23.20;;
80567;SDS011;69922;45.656;25.586;2023-12-20T03:25:28;36.90;;;22.40;;
80567;SDS011;69922;45.656;25.586;2023-12-20T03:26:35;39.80;;;22.80;;
80567;SDS011;69922;45.656;25.586;2023-12-20T03:27:41;42.80;;;24.70;;
80567;SDS011;69922;45.656;25.586;2023-12-20T03:28:48;43.20;;;24.30;;
80567;SDS011;69922;45.656;25.586;2023-12-20T03:29:54;42.90;;;25.90;;
80567;SDS011;69922;45.656;25.586;2023-12-20T03:31:01;42.00;;;25.30;;
80567;SDS011;69922;45.656;25.586;2023-12-20T03:32:07;39.60;;;24.60;;
80567;SDS011;69922;45.656;25.586;2023-12-20T03:33:13;44.10;;;25.40;;
80567;SDS011;69922;45.656;25.586;2023-12-20T03:34:20;49.20;;;25.90;;
80567;SDS011;69922;45.656;25.586;2023-12-20T03:35:26;46.30;;;27.20;;
80567;SDS011;69922;45.656;25.586;2023-12-20T03:36:32;45.00;;;26.10;;
80567;SDS011;69922;45.656;25.586;2023-12-20T03:37:39;43.60;;;25.90;;
80567;SDS011;69922;45.656;25.586;2023-12-20T03:38:45;43.60;;;24.20;;
80567;SDS011;69922;45.656;25.586;2023-12-20T03:39:52;36.00;;;22.70;;
80567;SDS011;69922;45.656;25.586;2023-12-20T03:40:58;41.50;;;25.10;;
80567;SDS011;69922;45.656;25.586;2023-12-20T03:42:05;39.70;;;24.10;;
80567;SDS011;69922;45.656;25.586;2023-12-20T03:43:12;37.20;;;22.20;;
80567;SDS011;69922;45.656;25.586;2023-12-20T03:44:18;40.20;;;22.60;;
80567;SDS011;69922;45.656;25.586;2023-12-20T03:45:24;45.80;;;24.50;;
80567;SDS011;69922;45.656;25.586;2023-12-20T03:46:31;40.20;;;24.60;;
80567;SDS011;69922;45.656;25.586;2023-12-20T03:47:37;42.80;;;24.60;;
80567;SDS011;69922;45.656;25.586;2023-12-20T03:48:44;41.20;;;24.40;;
80567;SDS011;69922;45.656;25.586;2023-12-20T03:49:50;41.60;;;24.80;;
80567;SDS011;69922;45.656;25.586;2023-12-20T03:50:57;43.20;;;23.80;;
80567;SDS011;69922;45.656;25.586;2023-12-20T03:52:04;39.40;;;23.70;;
80567;SDS011;69922;45.656;25.586;2023-12-20T03:53:10;44.50;;;24.90;;
80567;SDS011;69922;45.656;25.586;2023-12-20T03:54:17;43.80;;;26.80;;
80567;SDS011;69922;45.656;25.586;2023-12-20T03:55:23;43.00;;;25.10;;
80567;SDS011;69922;45.656;25.586;2023-12-20T03:56:29;38.80;;;23.70;;
80567;SDS011;69922;45.656;25.586;2023-12-20T03:57:35;44.20;;;24.70;;
80567;SDS011;69922;45.656;25.586;2023-12-20T03:58:42;40.80;;;24.60;;
80567;SDS011;69922;45.656;25.586;2023-12-20T03:59:48;35.00;;;23.10;;
80567;SDS011;69922;45.656;25.586;2023-12-20T04:00:54;38.30;;;22.60;;
80567;SDS011;69922;45.656;25.586;2023-12-20T04:02:01;37.60;;;22.10;;
80567;SDS011;69922;45.656;25.586;2023-12-20T04:03:07;40.40;;;22.40;;
80567;SDS011;69922;45.656;25.586;2023-12-20T04:04:17;36.00;;;21.30;;
80567;SDS011;69922;45.656;25.586;2023-12-20T04:05:23;36.60;;;21.60;;
80567;SDS011;69922;45.656;25.586;2023-12-20T04:06:30;38.80;;;21.80;;
80567;SDS011;69922;45.656;25.586;2023-12-20T04:07:36;34.90;;;21.20;;
80567;SDS011;69922;45.656;25.586;2023-12-20T04:08:43;40.50;;;22.10;;
80567;SDS011;69922;45.656;25.586;2023-12-20T04:09:50;44.50;;;24.60;;
80567;SDS011;69922;45.656;25.586;2023-12-20T04:10:56;40.90;;;24.20;;
80567;SDS011;69922;45.656;25.586;2023-12-20T04:12:02;41.90;;;24.30;;
80567;SDS011;69922;45.656;25.586;2023-12-20T04:13:09;42.60;;;25.10;;
80567;SDS011;69922;45.656;25.586;2023-12-20T04:14:16;46.60;;;25.10;;
80567;SDS011;69922;45.656;25.586;2023-12-20T04:15:22;46.50;;;25.80;;
80567;SDS011;69922;45.656;25.586;2023-12-20T04:16:29;44.40;;;25.70;;
80567;SDS011;69922;45.656;25.586;2023-12-20T04:17:35;44.90;;;26.80;;
80567;SDS011;69922;45.656;25.586;2023-12-20T04:18:42;43.50;;;25.70;;
80567;SDS011;69922;45.656;25.586;2023-12-20T04:19:48;41.90;;;26.70;;
80567;SDS011;69922;45.656;25.586;2023-12-20T04:20:54;48.60;;;26.70;;
80567;SDS011;69922;45.656;25.586;2023-12-20T04:22:01;42.10;;;24.00;;
80567;SDS011;69922;45.656;25.586;2023-12-20T04:23:08;45.40;;;23.60;;
80567;SDS011;69922;45.656;25.586;2023-12-20T04:24:14;42.40;;;23.40;;
80567;SDS011;69922;45.656;25.586;2023-12-20T04:25:20;40.50;;;23.10;;
80567;SDS011;69922;45.656;25.586;2023-12-20T04:26:27;43.40;;;24.00;;
80567;SDS011;69922;45.656;25.586;2023-12-20T04:27:33;40.00;;;24.00;;
80567;SDS011;69922;45.656;25.586;2023-12-20T04:28:40;40.20;;;23.00;;
80567;SDS011;69922;45.656;25.586;2023-12-20T04:29:47;40.40;;;23.10;;
80567;SDS011;69922;45.656;25.586;2023-12-20T04:30:53;42.40;;;24.60;;
80567;SDS011;69922;45.656;25.586;2023-12-20T04:31:59;40.20;;;23.60;;
80567;SDS011;69922;45.656;25.586;2023-12-20T04:33:05;43.00;;;24.80;;
80567;SDS011;69922;45.656;25.586;2023-12-20T04:34:12;43.20;;;24.20;;
80567;SDS011;69922;45.656;25.586;2023-12-20T04:35:18;42.30;;;25.80;;
80567;SDS011;69922;45.656;25.586;2023-12-20T04:36:25;42.40;;;24.60;;
80567;SDS011;69922;45.656;25.586;2023-12-20T04:37:31;46.20;;;25.90;;
80567;SDS011;69922;45.656;25.586;2023-12-20T04:38:37;42.50;;;24.70;;
80567;SDS011;69922;45.656;25.586;2023-12-20T04:39:44;46.80;;;24.30;;
80567;SDS011;69922;45.656;25.586;2023-12-20T04:40:50;38.80;;;22.70;;
80567;SDS011;69922;45.656;25.586;2023-12-20T04:41:57;44.20;;;25.60;;
80567;SDS011;69922;45.656;25.586;2023-12-20T04:43:03;39.70;;;24.10;;
80567;SDS011;69922;45.656;25.586;2023-12-20T04:44:10;41.30;;;24.50;;
80567;SDS011;69922;45.656;25.586;2023-12-20T04:45:16;48.80;;;26.80;;
80567;SDS011;69922;45.656;25.586;2023-12-20T04:46:23;46.30;;;27.30;;
80567;SDS011;69922;45.656;25.586;2023-12-20T04:47:30;43.60;;;25.50;;
80567;SDS011;69922;45.656;25.586;2023-12-20T04:48:36;45.90;;;24.40;;
80567;SDS011;69922;45.656;25.586;2023-12-20T04:49:43;46.00;;;25.30;;
80567;SDS011;69922;45.656;25.586;2023-12-20T04:50:49;47.10;;;28.00;;
80567;SDS011;69922;45.656;25.586;2023-12-20T04:51:56;42.40;;;25.10;;
80567;SDS011;69922;45.656;25.586;2023-12-20T04:53:02;44.50;;;25.20;;
80567;SDS011;69922;45.656;25.586;2023-12-20T04:54:09;47.80;;;25.50;;
80567;SDS011;69922;45.656;25.586;2023-12-20T04:55:16;51.80;;;28.40;;
80567;SDS011;69922;45.656;25.586;2023-12-20T04:56:22;46.30;;;26.50;;
80567;SDS011;69922;45.656;25.586;2023-12-20T04:57:29;44.10;;;26.10;;
80567;SDS011;69922;45.656;25.586;2023-12-20T04:58:35;44.00;;;24.60;;
80567;SDS011;69922;45.656;25.586;2023-12-20T04:59:41;42.00;;;26.10;;
80567;SDS011;69922;45.656;25.586;2023-12-20T05:00:48;43.40;;;23.70;;
80567;SDS011;69922;45.656;25.586;2023-12-20T05:01:54;42.10;;;23.80;;
80567;SDS011;69922;45.656;25.586;2023-12-20T05:03:02;41.10;;;25.60;;
80567;SDS011;69922;45.656;25.586;2023-12-20T05:04:09;39.70;;;23.90;;
80567;SDS011;69922;45.656;25.586;2023-12-20T05:05:15;47.40;;;25.60;;
80567;SDS011;69922;45.656;25.586;2023-12-20T05:06:22;46.10;;;25.00;;
80567;SDS011;69922;45.656;25.586;2023-12-20T05:07:29;47.70;;;26.60;;
80567;SDS011;69922;45.656;25.586;2023-12-20T05:08:35;42.70;;;26.30;;
80567;SDS011;69922;45.656;25.586;2023-12-20T05:09:41;43.10;;;25.10;;
80567;SDS011;69922;45.656;25.586;2023-12-20T05:10:48;42.10;;;25.60;;
80567;SDS011;69922;45.656;25.586;2023-12-20T05:11:55;46.70;;;25.20;;
80567;SDS011;69922;45.656;25.586;2023-12-20T05:13:01;48.30;;;26.20;;
80567;SDS011;69922;45.656;25.586;2023-12-20T05:14:08;44.40;;;26.40;;
80567;SDS011;69922;45.656;25.586;2023-12-20T05:15:14;43.20;;;25.30;;
80567;SDS011;69922;45.656;25.586;2023-12-20T05:16:20;44.40;;;27.30;;
80567;SDS011;69922;45.656;25.586;2023-12-20T05:17:27;45.20;;;25.00;;
80567;SDS011;69922;45.656;25.586;2023-12-20T05:18:33;43.10;;;24.50;;
80567;SDS011;69922;45.656;25.586;2023-12-20T05:19:39;41.40;;;23.90;;
80567;SDS011;69922;45.656;25.586;2023-12-20T05:20:46;40.60;;;22.50;;
80567;SDS011;69922;45.656;25.586;2023-12-20T05:21:53;41.30;;;23.80;;
80567;SDS011;69922;45.656;25.586;2023-12-20T05:22:59;42.90;;;23.00;;
80567;SDS011;69922;45.656;25.586;2023-12-20T05:24:05;40.90;;;25.20;;
80567;SDS011;69922;45.656;25.586;2023-12-20T05:25:12;46.80;;;24.20;;
80567;SDS011;69922;45.656;25.586;2023-12-20T05:26:18;41.20;;;25.50;;
80567;SDS011;69922;45.656;25.586;2023-12-20T05:27:25;50.90;;;27.00;;
80567;SDS011;69922;45.656;25.586;2023-12-20T05:28:31;43.90;;;25.40;;
80567;SDS011;69922;45.656;25.586;2023-12-20T05:29:37;49.60;;;28.30;;
80567;SDS011;69922;45.656;25.586;2023-12-20T05:30:44;41.30;;;24.00;;
80567;SDS011;69922;45.656;25.586;2023-12-20T05:31:50;45.60;;;26.30;;
80567;SDS011;69922;45.656;25.586;2023-12-20T05:32:56;47.30;;;25.70;;
80567;SDS011;69922;45.656;25.586;2023-12-20T05:34:03;47.70;;;26.40;;
80567;SDS011;69922;45.656;25.586;2023-12-20T05:35:09;47.50;;;28.60;;
80567;SDS011;69922;45.656;25.586;2023-12-20T05:36:16;44.40;;;26.20;;
80567;SDS011;69922;45.656;25.586;2023-12-20T05:37:22;45.30;;;24.90;;
80567;SDS011;69922;45.656;25.586;2023-12-20T05:38:28;43.70;;;24.80;;
80567;SDS011;69922;45.656;25.586;2023-12-20T05:39:35;46.70;;;26.50;;
80567;SDS011;69922;45.656;25.586;2023-12-20T05:40:41;47.50;;;27.70;;
80567;SDS011;69922;45.656;25.586;2023-12-20T05:41:48;39.40;;;24.30;;
80567;SDS011;69922;45.656;25.586;2023-12-20T05:42:54;43.40;;;25.10;;
80567;SDS011;69922;45.656;25.586;2023-12-20T05:44:00;42.20;;;24.90;;
80567;SDS011;69922;45.656;25.586;2023-12-20T05:45:08;45.20;;;27.10;;
80567;SDS011;69922;45.656;25.586;2023-12-20T05:46:15;54.60;;;29.40;;
80567;SDS011;69922;45.656;25.586;2023-12-20T05:47:22;67.60;;;35.20;;
80567;SDS011;69922;45.656;25.586;2023-12-20T05:48:28;66.60;;;35.70;;
80567;SDS011;69922;45.656;25.586;2023-12-20T05:49:34;60.80;;;34.90;;
80567;SDS011;69922;45.656;25.586;2023-12-20T05:50:41;69.50;;;37.70;;
80567;SDS011;69922;45.656;25.586;2023-12-20T05:51:48;67.10;;;35.50;;
80567;SDS011;69922;45.656;25.586;2023-12-20T05:52:55;62.00;;;33.10;;
80567;SDS011;69922;45.656;25.586;2023-12-20T05:54:01;60.90;;;33.00;;
80567;SDS011;69922;45.656;25.586;2023-12-20T05:55:09;61.80;;;34.00;;
80567;SDS011;69922;45.656;25.586;2023-12-20T05:56:15;65.20;;;35.10;;
80567;SDS011;69922;45.656;25.586;2023-12-20T05:57:21;66.00;;;36.20;;
80567;SDS011;69922;45.656;25.586;2023-12-20T05:58:27;65.60;;;35.60;;
80567;SDS011;69922;45.656;25.586;2023-12-20T05:59:34;66.30;;;35.20;;
80567;SDS011;69922;45.656;25.586;2023-12-20T06:00:40;66.10;;;34.50;;
80567;SDS011;69922;45.656;25.586;2023-12-20T06:01:47;62.30;;;34.00;;
80567;SDS011;69922;45.656;25.586;2023-12-20T06:02:54;63.10;;;33.60;;
80567;SDS011;69922;45.656;25.586;2023-12-20T06:04:00;64.10;;;32.80;;
80567;SDS011;69922;45.656;25.586;2023-12-20T06:05:08;57.30;;;32.20;;
80567;SDS011;69922;45.656;25.586;2023-12-20T06:06:14;68.30;;;33.10;;
80567;SDS011;69922;45.656;25.586;2023-12-20T06:07:22;57.70;;;33.50;;
80567;SDS011;69922;45.656;25.586;2023-12-20T06:08:28;60.50;;;35.80;;
80567;SDS011;69922;45.656;25.586;2023-12-20T06:09:34;68.20;;;34.40;;
80567;SDS011;69922;45.656;25.586;2023-12-20T06:10:41;62.80;;;32.40;;
80567;SDS011;69922;45.656;25.586;2023-12-20T06:11:47;53.10;;;30.00;;
80567;SDS011;69922;45.656;25.586;2023-12-20T06:12:54;57.10;;;31.20;;
80567;SDS011;69922;45.656;25.586;2023-12-20T06:14:01;63.90;;;34.40;;
80567;SDS011;69922;45.656;25.586;2023-12-20T06:15:08;69.60;;;37.90;;
80567;SDS011;69922;45.656;25.586;2023-12-20T06:16:15;67.30;;;37.80;;
80567;SDS011;69922;45.656;25.586;2023-12-20T06:17:22;63.60;;;35.90;;
80567;SDS011;69922;45.656;25.586;2023-12-20T06:18:28;69.80;;;37.30;;
80567;SDS011;69922;45.656;25.586;2023-12-20T06:19:35;68.10;;;36.50;;
80567;SDS011;69922;45.656;25.586;2023-12-20T06:20:41;71.80;;;37.20;;
80567;SDS011;69922;45.656;25.586;2023-12-20T06:21:48;67.70;;;38.50;;
80567;SDS011;69922;45.656;25.586;2023-12-20T06:22:54;74.00;;;37.20;;
80567;SDS011;69922;45.656;25.586;2023-12-20T06:24:01;71.10;;;36.90;;
80567;SDS011;69922;45.656;25.586;2023-12-20T06:25:08;63.70;;;33.90;;